createdAt,value
2022-08-31T00:00:38.955Z,23.25
2022-08-31T00:03:25.429Z,23.30
2022-08-31T00:05:58.300Z,23.35
2022-08-31T00:08:26.766Z,23.34
2022-08-31T00:10:55.827Z,23.35
2022-08-31T00:13:23.882Z,23.35
2022-08-31T00:15:52.155Z,23.28
2022-08-31T00:18:21.075Z,23.10
2022-08-31T00:20:48.773Z,22.79
2022-08-31T00:23:16.536Z,22.63
2022-08-31T00:25:46.237Z,22.39
2022-08-31T00:28:14.228Z,22.38
2022-08-31T00:30:42.394Z,22.27
2022-08-31T00:33:10.251Z,22.17
2022-08-31T00:35:38.956Z,22.13
2022-08-31T00:38:06.778Z,21.88
2022-08-31T00:40:44.437Z,21.94
2022-08-31T00:43:21.432Z,21.94
2022-08-31T00:45:49.533Z,21.85
2022-08-31T00:48:17.224Z,21.80
2022-08-31T00:50:45.192Z,21.76
2022-08-31T00:53:13.377Z,21.70
2022-08-31T00:55:41.067Z,21.67
2022-08-31T00:58:11.562Z,21.61
2022-08-31T01:00:40.583Z,21.65
2022-08-31T01:03:08.987Z,21.69
2022-08-31T01:05:38.230Z,21.77
2022-08-31T01:08:06.038Z,21.83
2022-08-31T01:10:39.443Z,21.74
2022-08-31T01:13:07.371Z,21.87
2022-08-31T01:15:35.258Z,21.84
2022-08-31T01:18:03.728Z,21.93
2022-08-31T01:20:56.774Z,22.00
2022-08-31T01:23:30.379Z,22.03
2022-08-31T01:25:58.813Z,22.05
2022-08-31T01:28:26.889Z,22.00
2022-08-31T01:31:00.574Z,22.03
2022-08-31T01:33:28.441Z,22.06
2022-08-31T01:35:56.604Z,22.07
2022-08-31T01:38:24.572Z,22.03
2022-08-31T01:40:54.495Z,22.07
2022-08-31T01:43:22.288Z,21.92
2022-08-31T01:45:50.538Z,21.91
2022-08-31T01:48:18.294Z,21.87
2022-08-31T01:50:47.214Z,21.90
2022-08-31T01:53:15.053Z,21.76
2022-08-31T01:55:42.926Z,21.70
2022-08-31T01:58:10.669Z,21.71
2022-08-31T02:00:50.918Z,21.57
2022-08-31T02:03:19.402Z,21.47
2022-08-31T02:05:47.261Z,21.48
2022-08-31T02:08:16.884Z,21.40
2022-08-31T02:10:45.768Z,21.35
2022-08-31T02:13:15.097Z,21.34
2022-08-31T02:15:42.759Z,21.34
2022-08-31T02:18:11.979Z,21.37
2022-08-31T02:20:40.106Z,21.39
2022-08-31T02:23:08.931Z,21.30
2022-08-31T02:25:36.901Z,21.19
2022-08-31T02:28:04.969Z,21.15
2022-08-31T02:30:32.612Z,21.20
2022-08-31T02:33:00.754Z,21.15
2022-08-31T02:35:29.084Z,21.14
2022-08-31T02:37:56.948Z,21.08
2022-08-31T02:40:25.825Z,21.11
2022-08-31T02:42:54.301Z,21.13
2022-08-31T02:45:27.422Z,21.17
2022-08-31T02:48:01.924Z,21.19
2022-08-31T02:50:40.501Z,21.20
2022-08-31T02:53:09.564Z,21.07
2022-08-31T02:55:37.852Z,21.05
2022-08-31T02:58:05.779Z,21.02
2022-08-31T03:00:34.148Z,21.03
2022-08-31T03:03:02.007Z,21.02
2022-08-31T03:05:29.980Z,20.98
2022-08-31T03:07:57.660Z,20.94
2022-08-31T03:10:25.563Z,20.84
2022-08-31T03:12:53.593Z,20.86
2022-08-31T03:15:25.837Z,20.84
2022-08-31T03:17:53.845Z,20.88
2022-08-31T03:20:25.620Z,20.93
2022-08-31T03:22:54.931Z,20.90
2022-08-31T03:25:24.319Z,20.92
2022-08-31T03:27:51.957Z,20.98
2022-08-31T03:30:20.862Z,20.90
2022-08-31T03:33:02.666Z,20.85
2022-08-31T03:35:32.544Z,20.98
2022-08-31T03:38:02.428Z,20.95
2022-08-31T03:40:30.667Z,20.86
2022-08-31T03:42:59.035Z,20.90
2022-08-31T03:45:28.890Z,20.92
2022-08-31T03:47:57.366Z,20.92
2022-08-31T03:50:27.081Z,21.00
2022-08-31T03:53:04.449Z,21.14
2022-08-31T03:55:33.024Z,21.26
2022-08-31T03:58:01.054Z,21.42
2022-08-31T04:00:28.908Z,21.47
2022-08-31T04:03:03.001Z,21.52
2022-08-31T04:05:33.476Z,21.58
2022-08-31T04:08:13.299Z,21.66
2022-08-31T04:11:13.869Z,21.76
2022-08-31T04:14:07.568Z,21.93
2022-08-31T04:17:01.496Z,22.07
2022-08-31T04:19:45.326Z,22.22
2022-08-31T04:22:26.108Z,22.37
2022-08-31T04:25:12.884Z,22.57
2022-08-31T04:27:46.071Z,22.71
2022-08-31T04:30:15.739Z,22.83
2022-08-31T04:32:43.488Z,22.86
2022-08-31T04:35:11.450Z,22.91
2022-08-31T04:37:45.936Z,23.05
2022-08-31T04:40:25.652Z,23.27
2022-08-31T04:42:54.796Z,23.39
2022-08-31T04:45:25.045Z,23.51
2022-08-31T04:47:53.972Z,23.51
2022-08-31T04:50:22.698Z,23.58
2022-08-31T04:53:09.770Z,23.65
2022-08-31T04:55:41.813Z,23.68
2022-08-31T04:58:13.185Z,23.50
2022-08-31T05:00:43.253Z,23.60
2022-08-31T05:03:18.278Z,23.59
2022-08-31T05:05:52.572Z,23.62
2022-08-31T05:08:23.087Z,23.57
2022-08-31T05:10:51.386Z,23.61
2022-08-31T05:13:20.789Z,23.64
2022-08-31T05:15:50.687Z,23.60
2022-08-31T05:18:22.956Z,23.63
2022-08-31T05:20:57.383Z,23.69
2022-08-31T05:23:27.387Z,23.67
2022-08-31T05:25:56.984Z,23.87
2022-08-31T05:28:26.009Z,24.14
2022-08-31T05:30:54.091Z,24.35
2022-08-31T05:33:35.222Z,24.52
2022-08-31T05:36:03.591Z,24.43
2022-08-31T05:38:31.486Z,24.53
2022-08-31T05:41:00.211Z,24.66
2022-08-31T05:43:28.484Z,24.93
2022-08-31T05:45:56.644Z,24.83
2022-08-31T05:48:29.823Z,24.95
2022-08-31T05:51:01.445Z,24.93
2022-08-31T05:53:29.561Z,25.02
2022-08-31T05:56:10.947Z,25.27
2022-08-31T05:58:44.364Z,25.37
2022-08-31T06:01:15.585Z,25.42
2022-08-31T06:04:02.183Z,25.32
2022-08-31T06:06:30.264Z,25.60
2022-08-31T06:08:58.690Z,25.57
2022-08-31T06:11:30.283Z,25.55
2022-08-31T06:14:01.363Z,25.73
2022-08-31T06:16:30.682Z,25.90
2022-08-31T06:18:58.708Z,25.82
2022-08-31T06:21:30.326Z,26.07
2022-08-31T06:23:59.977Z,25.99
2022-08-31T06:26:34.364Z,25.97
2022-08-31T06:29:04.764Z,26.10
2022-08-31T06:31:38.234Z,26.27
2022-08-31T06:34:08.548Z,26.32
2022-08-31T06:36:55.884Z,26.48
2022-08-31T06:40:02.367Z,26.25
2022-08-31T06:43:05.659Z,26.24
2022-08-31T06:45:49.935Z,26.48
2022-08-31T06:48:34.772Z,26.71
2022-08-31T06:51:03.382Z,26.99
2022-08-31T06:53:31.943Z,27.19
2022-08-31T06:56:07.381Z,27.25
2022-08-31T06:59:28.268Z,26.85
2022-08-31T07:02:11.965Z,27.08
2022-08-31T07:04:40.019Z,27.22
2022-08-31T07:07:09.123Z,27.39
2022-08-31T07:09:39.977Z,27.40
2022-08-31T07:12:08.062Z,27.55
2022-08-31T07:14:36.504Z,27.75
2022-08-31T07:17:05.299Z,27.83
2022-08-31T07:19:35.147Z,27.83
2022-08-31T07:22:05.985Z,27.93
2022-08-31T07:24:35.437Z,27.93
2022-08-31T07:27:10.785Z,28.09
2022-08-31T07:29:50.946Z,27.92
2022-08-31T07:32:20.452Z,28.11
2022-08-31T07:34:58.622Z,28.15
2022-08-31T07:37:50.327Z,28.19
2022-08-31T07:40:39.656Z,28.00
2022-08-31T07:43:10.389Z,27.98
2022-08-31T07:45:40.231Z,28.15
2022-08-31T07:48:10.024Z,28.25
2022-08-31T07:51:15.778Z,28.40
2022-08-31T07:53:55.867Z,28.57
2022-08-31T07:56:42.347Z,28.72
2022-08-31T07:59:15.166Z,28.50
2022-08-31T08:01:45.629Z,28.32
2022-08-31T08:04:18.740Z,28.44
2022-08-31T08:07:06.172Z,28.57
2022-08-31T08:10:02.034Z,28.69
2022-08-31T08:12:53.353Z,28.86
2022-08-31T08:15:31.883Z,28.69
2022-08-31T08:18:24.428Z,28.63
2022-08-31T08:20:57.051Z,28.79
2022-08-31T08:23:28.195Z,28.73
2022-08-31T08:26:21.681Z,28.76
2022-08-31T08:29:06.222Z,28.82
2022-08-31T08:31:39.108Z,28.77
2022-08-31T08:34:08.260Z,28.90
2022-08-31T08:36:39.039Z,28.93
2022-08-31T08:39:09.201Z,29.18
2022-08-31T08:41:40.432Z,28.69
2022-08-31T08:44:34.089Z,28.67
2022-08-31T08:47:04.894Z,28.91
2022-08-31T08:49:58.140Z,28.94
2022-08-31T08:52:31.377Z,29.19
2022-08-31T08:55:05.481Z,29.24
2022-08-31T08:57:35.304Z,29.40
2022-08-31T09:00:25.627Z,29.61
2022-08-31T09:03:20.655Z,29.70
2022-08-31T09:06:16.949Z,29.91
2022-08-31T09:09:11.349Z,30.17
2022-08-31T09:12:04.039Z,30.03
2022-08-31T09:14:37.236Z,29.69
2022-08-31T09:17:25.443Z,29.66
2022-08-31T09:20:01.653Z,29.67
2022-08-31T09:22:34.436Z,29.71
2022-08-31T09:25:04.007Z,29.91
2022-08-31T09:27:47.078Z,29.50
2022-08-31T09:30:18.445Z,29.79
2022-08-31T09:33:18.234Z,30.09
2022-08-31T09:35:46.417Z,30.37
2022-08-31T09:38:39.280Z,30.14
2022-08-31T09:41:22.467Z,30.28
2022-08-31T09:43:53.017Z,30.60
2022-08-31T09:46:29.816Z,30.80
2022-08-31T09:49:06.577Z,30.83
2022-08-31T09:51:36.730Z,30.48
2022-08-31T09:54:26.420Z,30.35
2022-08-31T09:56:58.570Z,29.94
2022-08-31T09:59:31.849Z,29.99
2022-08-31T10:02:02.854Z,30.31
2022-08-31T10:04:38.433Z,30.50
2022-08-31T10:07:17.532Z,30.56
2022-08-31T10:09:57.612Z,30.70
2022-08-31T10:12:42.255Z,30.69
2022-08-31T10:15:46.468Z,30.85
2022-08-31T10:18:31.611Z,31.07
2022-08-31T10:21:13.389Z,31.21
2022-08-31T10:23:57.312Z,31.03
2022-08-31T10:26:47.663Z,31.14
2022-08-31T10:29:40.529Z,31.00
2022-08-31T10:32:40.986Z,30.98
2022-08-31T10:35:22.254Z,30.84
2022-08-31T10:38:08.723Z,31.05
2022-08-31T10:41:03.683Z,31.23
2022-08-31T10:43:40.545Z,31.18
2022-08-31T10:46:12.342Z,31.13
2022-08-31T10:48:47.423Z,31.26
2022-08-31T10:51:23.353Z,31.48
2022-08-31T10:54:09.113Z,31.75
2022-08-31T10:56:41.649Z,31.84
2022-08-31T10:59:41.928Z,31.88
2022-08-31T11:02:31.826Z,31.68
2022-08-31T11:05:07.859Z,31.42
2022-08-31T11:07:45.566Z,31.25
2022-08-31T11:10:20.291Z,31.28
2022-08-31T11:12:57.863Z,31.54
2022-08-31T11:15:58.666Z,31.47
2022-08-31T11:18:50.858Z,31.63
2022-08-31T11:21:46.406Z,31.88
2022-08-31T11:24:14.131Z,31.63
2022-08-31T11:26:57.272Z,31.50
2022-08-31T11:29:34.388Z,31.43
2022-08-31T11:32:11.480Z,31.76
2022-08-31T11:34:56.992Z,31.92
2022-08-31T11:38:04.570Z,31.59
2022-08-31T11:40:42.387Z,31.92
2022-08-31T11:43:15.399Z,32.16
2022-08-31T11:45:43.342Z,32.17
2022-08-31T11:48:51.559Z,31.87
2022-08-31T11:51:42.405Z,31.66
2022-08-31T11:54:42.325Z,32.06
2022-08-31T11:57:37.463Z,31.88
2022-08-31T12:00:06.526Z,32.20
2022-08-31T12:02:34.896Z,32.06
2022-08-31T12:05:03.408Z,32.22
2022-08-31T12:07:34.808Z,32.40
2022-08-31T12:10:18.394Z,32.26
2022-08-31T12:12:55.422Z,32.38
2022-08-31T12:16:01.407Z,32.57
2022-08-31T12:18:59.128Z,32.46
2022-08-31T12:21:48.212Z,32.14
2022-08-31T12:24:18.847Z,32.96
2022-08-31T12:26:52.709Z,33.02
2022-08-31T12:29:27.877Z,33.28
2022-08-31T12:32:10.590Z,33.41
2022-08-31T12:34:58.338Z,33.29
2022-08-31T12:37:28.757Z,33.30
2022-08-31T12:40:10.876Z,33.77
2022-08-31T12:42:54.583Z,33.69
2022-08-31T12:45:58.189Z,33.06
2022-08-31T12:48:45.291Z,33.24
2022-08-31T12:51:46.098Z,33.35
2022-08-31T12:54:28.868Z,33.06
2022-08-31T12:57:20.195Z,33.02
2022-08-31T13:00:12.975Z,33.54
2022-08-31T13:02:43.135Z,34.16
2022-08-31T13:05:27.045Z,33.69
2022-08-31T13:07:55.960Z,33.38
2022-08-31T13:10:29.718Z,33.83
2022-08-31T13:13:01.003Z,34.23
2022-08-31T13:15:39.877Z,34.71
2022-08-31T13:18:23.283Z,34.63
2022-08-31T13:21:06.000Z,34.78
2022-08-31T13:23:41.207Z,34.94
2022-08-31T13:26:15.462Z,35.29
2022-08-31T13:28:45.744Z,34.78
2022-08-31T13:31:14.186Z,33.81
2022-08-31T13:33:42.224Z,32.99
2022-08-31T13:36:15.036Z,32.71
2022-08-31T13:39:07.084Z,32.65
2022-08-31T13:41:36.965Z,33.00
2022-08-31T13:44:10.423Z,33.05
2022-08-31T13:46:44.493Z,32.92
2022-08-31T13:49:38.408Z,32.36
2022-08-31T13:52:08.587Z,32.35
2022-08-31T13:54:36.845Z,32.73
2022-08-31T13:57:35.125Z,32.86
2022-08-31T14:00:42.328Z,32.82
2022-08-31T14:03:30.570Z,32.72
2022-08-31T14:06:24.665Z,32.31
2022-08-31T14:09:03.855Z,32.41
2022-08-31T14:11:32.381Z,32.50
2022-08-31T14:14:08.527Z,32.56
2022-08-31T14:16:43.684Z,32.30
2022-08-31T14:19:34.649Z,32.56
2022-08-31T14:22:36.647Z,32.14
2022-08-31T14:25:07.784Z,32.12
2022-08-31T14:27:37.289Z,32.03
2022-08-31T14:30:09.559Z,31.53
2022-08-31T14:32:37.945Z,31.13
2022-08-31T14:35:12.000Z,31.02
2022-08-31T14:37:45.186Z,31.10
2022-08-31T14:40:26.558Z,31.41
2022-08-31T14:43:00.941Z,31.64
2022-08-31T14:45:28.838Z,31.83
2022-08-31T14:47:59.122Z,31.87
2022-08-31T14:50:27.333Z,31.60
2022-08-31T14:52:59.756Z,31.40
2022-08-31T14:55:28.620Z,31.59
2022-08-31T14:57:59.883Z,31.60
2022-08-31T15:00:29.209Z,31.20
2022-08-31T15:02:56.865Z,31.41
2022-08-31T15:05:25.205Z,31.39
2022-08-31T15:07:53.761Z,31.10
2022-08-31T15:10:23.007Z,31.04
2022-08-31T15:12:50.616Z,31.35
2022-08-31T15:15:20.839Z,31.35
2022-08-31T15:17:50.719Z,31.45
2022-08-31T15:20:19.760Z,31.01
2022-08-31T15:22:48.460Z,30.87
2022-08-31T15:25:18.613Z,30.59
2022-08-31T15:27:46.730Z,30.62
2022-08-31T15:30:17.613Z,30.67
2022-08-31T15:32:46.954Z,30.60
2022-08-31T15:35:18.216Z,30.72
2022-08-31T15:37:59.000Z,30.37
2022-08-31T15:40:29.350Z,29.78
2022-08-31T15:43:02.950Z,29.55
2022-08-31T15:45:32.109Z,29.28
2022-08-31T15:48:20.884Z,29.10
2022-08-31T15:50:57.376Z,28.75
2022-08-31T15:53:29.987Z,28.73
2022-08-31T15:56:09.539Z,28.67
2022-08-31T15:58:41.947Z,28.53
2022-08-31T16:01:18.842Z,28.42
2022-08-31T16:03:57.979Z,28.11
2022-08-31T16:06:31.477Z,27.77
2022-08-31T16:09:02.988Z,27.42
2022-08-31T16:11:37.047Z,27.21
2022-08-31T16:14:11.049Z,26.96
2022-08-31T16:16:43.430Z,26.88
2022-08-31T16:19:27.786Z,26.69
2022-08-31T16:22:03.555Z,26.56
2022-08-31T16:24:37.058Z,26.43
2022-08-31T16:27:13.948Z,26.30
2022-08-31T16:29:46.472Z,26.15
2022-08-31T16:32:17.663Z,26.07
2022-08-31T16:34:46.485Z,25.98
2022-08-31T16:37:15.341Z,25.97
2022-08-31T16:39:44.526Z,25.88
2022-08-31T16:42:12.304Z,25.79
2022-08-31T16:44:41.351Z,25.74
2022-08-31T16:47:10.719Z,25.66
2022-08-31T16:49:41.397Z,25.55
2022-08-31T16:52:15.108Z,25.48
2022-08-31T16:54:48.589Z,25.43
2022-08-31T16:57:18.968Z,25.41
2022-08-31T16:59:47.191Z,25.31
2022-08-31T17:02:15.833Z,25.20
2022-08-31T17:04:54.289Z,25.12
2022-08-31T17:07:24.287Z,24.98
2022-08-31T17:09:56.778Z,24.93
2022-08-31T17:12:27.638Z,24.86
2022-08-31T17:14:56.324Z,24.84
2022-08-31T17:17:26.140Z,24.78
2022-08-31T17:19:56.220Z,24.71
2022-08-31T17:22:32.572Z,24.62
2022-08-31T17:25:05.114Z,24.53
2022-08-31T17:27:35.353Z,24.40
2022-08-31T17:30:06.510Z,24.23
2022-08-31T17:32:39.385Z,24.17
2022-08-31T17:35:19.145Z,24.00
2022-08-31T17:37:48.208Z,23.97
2022-08-31T17:40:17.182Z,23.98
2022-08-31T17:42:44.783Z,23.91
2022-08-31T17:45:13.237Z,23.82
2022-08-31T17:47:41.513Z,23.83
2022-08-31T17:50:11.385Z,23.82
2022-08-31T17:52:39.198Z,23.76
2022-08-31T17:55:07.974Z,23.76
2022-08-31T17:57:37.027Z,23.70
2022-08-31T18:00:05.824Z,23.71
2022-08-31T18:02:37.912Z,23.71
2022-08-31T18:05:11.917Z,23.67
2022-08-31T18:07:50.142Z,23.66
2022-08-31T18:10:19.062Z,23.61
2022-08-31T18:12:47.940Z,23.44
2022-08-31T18:15:19.288Z,23.27
2022-08-31T18:17:48.457Z,23.26
2022-08-31T18:20:16.729Z,23.30
2022-08-31T18:22:46.914Z,23.18
2022-08-31T18:25:19.359Z,23.03
2022-08-31T18:27:49.367Z,22.92
2022-08-31T18:30:18.330Z,22.93
2022-08-31T18:32:47.359Z,22.94
2022-08-31T18:35:17.919Z,22.97
2022-08-31T18:37:45.973Z,22.97
2022-08-31T18:40:32.504Z,22.98
2022-08-31T18:43:19.271Z,22.91
2022-08-31T18:45:51.580Z,22.91
2022-08-31T18:48:25.249Z,22.84
2022-08-31T18:50:54.022Z,22.80
2022-08-31T18:53:28.573Z,22.69
2022-08-31T18:56:08.743Z,22.64
2022-08-31T18:58:37.677Z,22.59
2022-08-31T19:01:07.625Z,22.56
2022-08-31T19:03:38.033Z,22.36
2022-08-31T19:06:07.249Z,22.13
2022-08-31T19:08:38.052Z,21.99
2022-08-31T19:11:07.290Z,21.84
2022-08-31T19:13:35.853Z,21.74
2022-08-31T19:16:15.219Z,21.66
2022-08-31T19:18:44.949Z,21.38
2022-08-31T19:21:19.166Z,21.15
2022-08-31T19:23:47.346Z,20.97
2022-08-31T19:26:22.899Z,21.05
2022-08-31T19:28:50.876Z,21.01
2022-08-31T19:31:20.563Z,21.00
2022-08-31T19:33:49.386Z,20.92
2022-08-31T19:36:17.280Z,20.99
2022-08-31T19:38:46.844Z,20.91
2022-08-31T19:41:23.141Z,20.93
2022-08-31T19:43:56.144Z,20.89
2022-08-31T19:46:34.971Z,20.77
2022-08-31T19:49:03.840Z,20.69
2022-08-31T19:51:32.176Z,20.56
2022-08-31T19:54:03.749Z,20.48
2022-08-31T19:56:31.756Z,20.35
2022-08-31T19:59:00.173Z,20.37
2022-08-31T20:01:34.258Z,20.30
2022-08-31T20:04:04.448Z,20.20
2022-08-31T20:06:33.276Z,20.06
2022-08-31T20:09:01.421Z,20.04
2022-08-31T20:11:31.352Z,20.02
2022-08-31T20:14:00.089Z,19.90
2022-08-31T20:16:33.817Z,19.77
2022-08-31T20:19:04.262Z,19.71
2022-08-31T20:21:35.088Z,19.82
2022-08-31T20:24:05.243Z,19.87
2022-08-31T20:26:36.360Z,19.61
2022-08-31T20:29:09.230Z,19.64
2022-08-31T20:31:40.366Z,19.67
2022-08-31T20:34:08.440Z,19.75
2022-08-31T20:36:38.426Z,19.86
2022-08-31T20:39:10.985Z,19.90
2022-08-31T20:42:10.123Z,19.86
2022-08-31T20:44:42.924Z,19.74
2022-08-31T20:47:30.621Z,19.71
2022-08-31T20:49:59.941Z,19.69
2022-08-31T20:52:29.659Z,19.61
2022-08-31T20:55:02.684Z,19.67
2022-08-31T20:57:32.738Z,19.64
2022-08-31T21:00:06.609Z,19.68
2022-08-31T21:02:39.505Z,19.57
2022-08-31T21:05:37.066Z,19.51
2022-08-31T21:08:02.694Z,19.46
2022-08-31T21:10:37.004Z,19.50
2022-08-31T21:13:11.360Z,19.51
2022-08-31T21:15:43.539Z,19.48
2022-08-31T21:18:13.000Z,19.52
2022-08-31T21:20:41.154Z,19.48
2022-08-31T21:23:10.803Z,19.55
2022-08-31T21:25:44.824Z,19.46
2022-08-31T21:28:14.703Z,19.58
2022-08-31T21:30:42.525Z,19.76
2022-08-31T21:33:10.660Z,19.93
2022-08-31T21:35:38.505Z,20.04
2022-08-31T21:38:10.257Z,20.17
2022-08-31T21:40:38.094Z,20.25
2022-08-31T21:43:05.985Z,20.35
2022-08-31T21:45:34.144Z,20.33
2022-08-31T21:48:02.268Z,20.25
2022-08-31T21:50:31.872Z,20.06
2022-08-31T21:53:01.062Z,19.94
2022-08-31T21:55:29.187Z,19.75
2022-08-31T21:57:57.664Z,19.64
2022-08-31T22:00:32.826Z,19.68
2022-08-31T22:03:00.665Z,19.72
2022-08-31T22:05:31.514Z,19.75
2022-08-31T22:07:59.671Z,19.67
2022-08-31T22:10:30.671Z,19.67
2022-08-31T22:13:00.404Z,19.53
2022-08-31T22:15:32.492Z,19.63
2022-08-31T22:18:35.373Z,19.68
2022-08-31T22:20:49.024Z,19.59
2022-08-31T22:23:17.421Z,19.57
2022-08-31T22:25:46.040Z,19.50
2022-08-31T22:28:15.474Z,19.47
2022-08-31T22:30:46.539Z,19.41
2022-08-31T22:33:19.214Z,19.30
2022-08-31T22:35:46.908Z,19.25
2022-08-31T22:38:19.135Z,19.28
2022-08-31T22:40:50.419Z,19.37
2022-08-31T22:43:18.551Z,19.49
2022-08-31T22:45:48.688Z,19.56
2022-08-31T22:48:20.766Z,19.61
2022-08-31T22:50:48.600Z,19.67
2022-08-31T22:53:16.568Z,19.70
2022-08-31T22:55:44.889Z,19.71
2022-08-31T22:58:12.950Z,19.67
2022-08-31T23:00:41.912Z,19.65
2022-08-31T23:03:14.016Z,19.57
2022-08-31T23:05:43.959Z,19.55
2022-08-31T23:08:12.165Z,19.47
2022-08-31T23:10:41.217Z,19.37
2022-08-31T23:13:08.901Z,19.34
2022-08-31T23:15:38.592Z,19.27
2022-08-31T23:18:10.324Z,19.24
2022-08-31T23:20:38.236Z,19.21
2022-08-31T23:23:06.175Z,19.25
2022-08-31T23:25:35.731Z,19.32
2022-08-31T23:28:04.108Z,19.30
2022-08-31T23:30:34.455Z,19.35
2022-08-31T23:33:02.465Z,19.25
2022-08-31T23:35:30.919Z,19.30
2022-08-31T23:38:01.007Z,19.27
2022-08-31T23:40:31.136Z,19.29
2022-08-31T23:43:02.183Z,19.23
2022-08-31T23:45:30.565Z,19.27
2022-08-31T23:48:00.554Z,19.27
2022-08-31T23:50:29.623Z,19.28
2022-08-31T23:52:58.005Z,19.17
2022-08-31T23:55:30.018Z,19.02
2022-08-31T23:57:58.770Z,18.97
